El Progreso, Guatemala
Current Conditions -  °F | °C
As of 3:00 AM on Tuesday 21 Oct 2014 (Local Time) from MGGT Reporting Station
Broken Clouds Broken Clouds  
Wind Chill: 63°   Ceiling: 1000
Heat Index: 63°   Visibility: 6mi
Dew Point: 61°   Wind: 5mph
Humidity: 94%   Direction: 180°S
Pressure: 30.12"   Gusts: NA
Location:  14.35°N, 89.85°W
Report Text: MGGT 210900Z 18004KT 9999 BKN010 17/16 Q1020 A3012
Loading
Personal Weather Stations






























Interactive Weather Map
Tropical Storm Tracking
New forecast layout! Learn more

10-Day Weather Forecast

Advertisements
Track Severe Weather on mobile